createdAt,value
2018-08-23T00:00:37.285Z,24.89
2018-08-23T00:03:40.647Z,24.84
2018-08-23T00:06:49.647Z,24.83
2018-08-23T00:09:54.043Z,24.76
2018-08-23T00:12:58.307Z,24.78
2018-08-23T00:16:01.544Z,24.73
2018-08-23T00:19:05.183Z,24.76
2018-08-23T00:22:08.531Z,24.61
2018-08-23T00:25:11.816Z,24.56
2018-08-23T00:28:15.104Z,24.38
2018-08-23T00:31:18.450Z,24.26
2018-08-23T00:34:23.796Z,24.20
2018-08-23T00:37:27.096Z,24.18
2018-08-23T00:40:31.025Z,24.05
2018-08-23T00:43:34.260Z,24.03
2018-08-23T00:46:37.548Z,24.09
2018-08-23T00:49:40.872Z,24.06
2018-08-23T00:52:46.327Z,24.03
2018-08-23T00:55:58.550Z,24.03
2018-08-23T00:59:02.762Z,24.03
2018-08-23T01:02:08.210Z,23.99
2018-08-23T01:05:12.544Z,24.03
2018-08-23T01:08:19.968Z,24.06
2018-08-23T01:11:24.632Z,24.09
2018-08-23T01:14:27.859Z,24.02
2018-08-23T01:17:31.130Z,24.03
2018-08-23T01:20:34.315Z,24.00
2018-08-23T01:23:37.965Z,23.88
2018-08-23T01:26:41.233Z,23.82
2018-08-23T01:29:44.410Z,23.82
2018-08-23T01:32:47.716Z,23.83
2018-08-23T01:35:52.518Z,23.76
2018-08-23T01:38:55.743Z,23.69
2018-08-23T01:41:59.100Z,23.54
2018-08-23T01:45:04.637Z,23.39
2018-08-23T01:48:09.048Z,23.34
2018-08-23T01:51:12.339Z,23.25
2018-08-23T01:54:15.760Z,23.24
2018-08-23T01:57:23.160Z,23.15
2018-08-23T02:00:28.693Z,22.96
2018-08-23T02:03:31.938Z,22.82
2018-08-23T02:06:36.196Z,22.75
2018-08-23T02:09:39.492Z,22.70
2018-08-23T02:12:48.059Z,22.82
2018-08-23T02:15:52.003Z,22.86
2018-08-23T02:18:55.301Z,22.90
2018-08-23T02:21:58.610Z,22.97
2018-08-23T02:25:01.793Z,22.92
2018-08-23T02:28:12.080Z,22.85
2018-08-23T02:31:15.616Z,22.90
2018-08-23T02:34:19.046Z,22.76
2018-08-23T02:37:23.482Z,22.80
2018-08-23T02:40:28.427Z,22.85
2018-08-23T02:43:31.647Z,22.85
2018-08-23T02:46:35.473Z,22.70
2018-08-23T02:49:38.770Z,22.68
2018-08-23T02:52:42.024Z,22.69
2018-08-23T02:55:49.459Z,22.67
2018-08-23T02:59:00.642Z,22.60
2018-08-23T03:02:10.914Z,22.56
2018-08-23T03:05:15.275Z,22.46
2018-08-23T03:08:28.689Z,22.40
2018-08-23T03:11:35.329Z,22.41
2018-08-23T03:14:39.133Z,22.41
2018-08-23T03:17:47.560Z,22.46
2018-08-23T03:21:01.832Z,22.34
2018-08-23T03:24:06.198Z,22.31
2018-08-23T03:27:09.479Z,22.38
2018-08-23T03:30:13.819Z,22.39
2018-08-23T03:33:17.317Z,22.25
2018-08-23T03:36:20.749Z,22.33
2018-08-23T03:39:24.245Z,22.33
2018-08-23T03:42:27.847Z,22.36
2018-08-23T03:45:31.102Z,22.42
2018-08-23T03:48:34.375Z,22.40
2018-08-23T03:51:37.852Z,22.42
2018-08-23T03:54:41.116Z,22.30
2018-08-23T03:57:49.798Z,22.22
2018-08-23T04:01:01.600Z,22.15
2018-08-23T04:04:04.859Z,22.15
2018-08-23T04:07:08.145Z,22.08
2018-08-23T04:10:11.475Z,21.93
2018-08-23T04:13:14.781Z,21.86
2018-08-23T04:16:25.060Z,21.80
2018-08-23T04:19:29.235Z,21.89
2018-08-23T04:22:32.500Z,22.04
2018-08-23T04:25:35.654Z,22.07
2018-08-23T04:28:40.103Z,22.11
2018-08-23T04:31:43.483Z,22.07
2018-08-23T04:34:46.723Z,22.03
2018-08-23T04:37:50.559Z,22.03
2018-08-23T04:40:59.799Z,21.98
2018-08-23T04:44:12.447Z,21.88
2018-08-23T04:47:15.903Z,21.84
2018-08-23T04:50:19.542Z,21.94
2018-08-23T04:53:23.804Z,22.00
2018-08-23T04:56:27.161Z,22.09
2018-08-23T04:59:30.502Z,22.17
2018-08-23T05:02:33.974Z,22.22
2018-08-23T05:05:37.443Z,22.26
2018-08-23T05:08:41.035Z,22.18
2018-08-23T05:11:44.602Z,22.15
2018-08-23T05:14:47.977Z,21.99
2018-08-23T05:17:52.298Z,21.89
2018-08-23T05:20:55.621Z,21.82
2018-08-23T05:24:03.303Z,21.80
2018-08-23T05:27:06.489Z,21.84
2018-08-23T05:30:09.759Z,21.90
2018-08-23T05:33:13.982Z,21.92
2018-08-23T05:36:17.795Z,22.06
2018-08-23T05:39:22.926Z,22.18
2018-08-23T05:42:38.194Z,22.28
2018-08-23T05:45:48.181Z,22.44
2018-08-23T05:48:51.966Z,22.51
2018-08-23T05:51:56.968Z,22.52
2018-08-23T05:55:00.778Z,22.64
2018-08-23T05:58:21.944Z,22.71
2018-08-23T06:01:25.382Z,22.82
2018-08-23T06:04:39.334Z,22.93
2018-08-23T06:07:42.682Z,23.08
2018-08-23T06:10:49.554Z,23.15
2018-08-23T06:13:53.791Z,23.25
2018-08-23T06:16:58.609Z,23.26
2018-08-23T06:20:01.911Z,23.28
2018-08-23T06:23:05.324Z,23.41
2018-08-23T06:26:08.676Z,23.52
2018-08-23T06:29:16.149Z,23.61
2018-08-23T06:32:19.499Z,23.68
2018-08-23T06:35:24.503Z,23.76
2018-08-23T06:38:27.793Z,23.87
2018-08-23T06:41:31.144Z,23.91
2018-08-23T06:44:41.320Z,23.83
2018-08-23T06:47:49.768Z,23.99
2018-08-23T06:50:56.092Z,24.17
2018-08-23T06:54:01.445Z,24.36
2018-08-23T06:57:04.740Z,24.59
2018-08-23T07:00:08.205Z,24.76
2018-08-23T07:03:11.540Z,24.85
2018-08-23T07:06:14.884Z,24.92
2018-08-23T07:09:18.826Z,25.03
2018-08-23T07:12:22.915Z,25.07
2018-08-23T07:15:26.155Z,25.11
2018-08-23T07:18:31.109Z,25.23
2018-08-23T07:21:34.417Z,25.32
2018-08-23T07:24:41.589Z,25.36
2018-08-23T07:27:45.457Z,25.40
2018-08-23T07:30:49.862Z,25.67
2018-08-23T07:33:54.896Z,25.91
2018-08-23T07:37:00.100Z,25.95
2018-08-23T07:40:10.945Z,26.00
2018-08-23T07:43:14.276Z,26.07
2018-08-23T07:46:18.739Z,26.22
2018-08-23T07:49:23.530Z,26.21
2018-08-23T07:52:28.211Z,26.29
2018-08-23T07:55:31.359Z,26.47
2018-08-23T07:58:34.608Z,26.19
2018-08-23T08:01:38.858Z,26.25
2018-08-23T08:04:42.063Z,26.39
2018-08-23T08:07:45.514Z,26.46
2018-08-23T08:10:48.941Z,26.53
2018-08-23T08:14:55.727Z,26.41
2018-08-23T08:18:09.127Z,26.54
2018-08-23T08:21:16.844Z,26.77
2018-08-23T08:24:20.139Z,26.98
2018-08-23T08:27:24.884Z,26.98
2018-08-23T08:30:39.891Z,26.96
2018-08-23T08:33:43.166Z,26.94
2018-08-23T08:36:47.757Z,26.78
2018-08-23T08:39:52.132Z,26.72
2018-08-23T08:42:55.299Z,26.95
2018-08-23T08:45:59.762Z,27.01
2018-08-23T08:49:03.302Z,27.17
2018-08-23T08:52:06.615Z,27.30
2018-08-23T08:55:11.935Z,27.37
2018-08-23T08:58:15.325Z,27.46
2018-08-23T09:01:18.912Z,27.69
2018-08-23T09:04:28.054Z,27.92
2018-08-23T09:07:32.865Z,28.01
2018-08-23T09:10:36.136Z,27.96
2018-08-23T09:13:46.428Z,27.90
2018-08-23T09:16:49.760Z,27.95
2018-08-23T09:20:01.670Z,27.95
2018-08-23T09:23:04.913Z,28.09
2018-08-23T09:26:08.278Z,28.28
2018-08-23T09:29:23.252Z,28.49
2018-08-23T09:32:27.543Z,28.80
2018-08-23T09:35:31.943Z,29.08
2018-08-23T09:38:35.188Z,29.18
2018-08-23T09:41:38.544Z,29.32
2018-08-23T09:44:58.063Z,29.43
2018-08-23T09:48:01.356Z,29.38
2018-08-23T09:51:10.836Z,29.37
2018-08-23T09:54:18.321Z,29.60
2018-08-23T09:57:22.771Z,29.70
2018-08-23T10:00:31.771Z,29.84
2018-08-23T10:03:40.455Z,29.72
2018-08-23T10:06:49.349Z,29.78
2018-08-23T10:09:57.909Z,29.78
2018-08-23T10:13:06.571Z,29.81
2018-08-23T10:16:15.264Z,29.62
2018-08-23T10:19:24.900Z,29.42
2018-08-23T10:22:38.188Z,29.57
2018-08-23T10:25:44.771Z,29.55
2018-08-23T10:28:50.048Z,29.50
2018-08-23T10:31:54.255Z,29.65
2018-08-23T10:34:57.529Z,29.69
2018-08-23T10:38:00.882Z,29.63
2018-08-23T10:41:04.619Z,29.83
2018-08-23T10:44:07.922Z,30.09
2018-08-23T10:47:11.215Z,30.25
2018-08-23T10:50:14.612Z,30.43
2018-08-23T10:53:18.454Z,30.69
2018-08-23T10:56:25.418Z,30.92
2018-08-23T10:59:28.602Z,30.82
2018-08-23T11:02:31.911Z,30.83
2018-08-23T11:05:35.757Z,30.73
2018-08-23T11:08:39.637Z,30.61
2018-08-23T11:11:42.972Z,30.59
2018-08-23T11:14:46.323Z,30.59
2018-08-23T11:17:54.996Z,30.95
2018-08-23T11:20:58.356Z,31.15
2018-08-23T11:24:02.072Z,31.57
2018-08-23T11:27:08.334Z,31.55
2018-08-23T11:30:11.622Z,31.34
2018-08-23T11:33:14.894Z,31.52
2018-08-23T11:36:18.157Z,32.01
2018-08-23T11:39:23.004Z,32.14
2018-08-23T11:42:26.211Z,32.12
2018-08-23T11:45:29.563Z,31.87
2018-08-23T11:48:32.819Z,31.55
2018-08-23T11:51:36.403Z,31.80
2018-08-23T11:54:40.684Z,31.79
2018-08-23T11:57:43.953Z,31.95
2018-08-23T12:00:47.227Z,32.23
2018-08-23T12:03:50.462Z,32.23
2018-08-23T12:06:57.454Z,32.15
2018-08-23T12:10:00.867Z,32.30
2018-08-23T12:13:04.102Z,31.82
2018-08-23T12:16:09.389Z,32.19
2018-08-23T12:19:12.707Z,32.18
2018-08-23T12:22:15.978Z,32.03
2018-08-23T12:25:19.307Z,31.76
2018-08-23T12:28:29.943Z,31.55
2018-08-23T12:31:33.298Z,31.99
2018-08-23T12:34:38.328Z,32.43
2018-08-23T12:37:47.232Z,32.34
2018-08-23T12:40:55.706Z,32.79
2018-08-23T12:44:00.616Z,32.73
2018-08-23T12:47:05.443Z,32.54
2018-08-23T12:50:08.697Z,32.81
2018-08-23T12:53:12.328Z,33.04
2018-08-23T12:56:15.512Z,33.06
2018-08-23T12:59:18.756Z,33.12
2018-08-23T13:02:23.391Z,33.22
2018-08-23T13:05:26.583Z,33.01
2018-08-23T13:08:29.896Z,33.11
2018-08-23T13:11:33.220Z,33.12
2018-08-23T13:14:36.495Z,33.16
2018-08-23T13:17:39.789Z,33.15
2018-08-23T13:20:43.087Z,33.19
2018-08-23T13:23:46.800Z,33.32
2018-08-23T13:26:50.139Z,33.32
2018-08-23T13:29:54.661Z,33.49
2018-08-23T13:32:58.527Z,33.72
2018-08-23T13:36:01.954Z,33.52
2018-08-23T13:39:08.208Z,33.81
2018-08-23T13:42:11.475Z,33.71
2018-08-23T13:45:14.652Z,33.42
2018-08-23T13:48:18.032Z,33.06
2018-08-23T13:51:21.271Z,33.07
2018-08-23T13:54:25.289Z,33.22
2018-08-23T13:57:28.681Z,33.23
2018-08-23T14:00:37.924Z,33.66
2018-08-23T14:03:41.444Z,33.95
2018-08-23T14:06:44.804Z,34.06
2018-08-23T14:09:48.032Z,33.84
2018-08-23T14:12:53.486Z,33.86
2018-08-23T14:16:02.232Z,33.89
2018-08-23T14:19:05.492Z,33.78
2018-08-23T14:22:08.952Z,33.80
2018-08-23T14:25:12.398Z,33.72
2018-08-23T14:28:15.584Z,33.56
2018-08-23T14:31:18.991Z,33.12
2018-08-23T14:34:23.068Z,33.23
2018-08-23T14:37:26.721Z,33.35
2018-08-23T14:40:30.066Z,33.26
2018-08-23T14:43:33.354Z,33.13
2018-08-23T14:46:42.127Z,33.37
2018-08-23T14:49:45.390Z,33.59
2018-08-23T14:52:50.129Z,33.95
2018-08-23T14:55:59.320Z,34.10
2018-08-23T14:59:02.632Z,34.18
2018-08-23T15:02:06.189Z,34.20
2018-08-23T15:05:09.504Z,34.00
2018-08-23T15:08:12.933Z,34.23
2018-08-23T15:11:16.072Z,34.69
2018-08-23T15:14:19.545Z,34.99
2018-08-23T15:17:24.733Z,34.91
2018-08-23T15:20:28.032Z,34.50
2018-08-23T15:23:31.396Z,34.82
2018-08-23T15:26:34.800Z,34.87
2018-08-23T15:29:37.954Z,34.90
2018-08-23T15:32:41.222Z,34.95
2018-08-23T15:35:44.559Z,34.84
2018-08-23T15:38:47.788Z,34.78
2018-08-23T15:41:51.210Z,34.93
2018-08-23T15:44:55.478Z,34.81
2018-08-23T15:47:58.819Z,34.52
2018-08-23T15:51:01.912Z,34.73
2018-08-23T15:54:05.697Z,34.89
2018-08-23T15:57:08.947Z,35.00
2018-08-23T16:00:12.235Z,34.97
2018-08-23T16:03:15.995Z,34.93
2018-08-23T16:06:19.679Z,34.81
2018-08-23T16:09:24.488Z,34.92
2018-08-23T16:12:27.779Z,34.97
2018-08-23T16:15:31.500Z,34.68
2018-08-23T16:18:40.303Z,34.56
2018-08-23T16:21:43.699Z,34.83
2018-08-23T16:24:47.126Z,34.94
2018-08-23T16:27:51.109Z,34.66
2018-08-23T16:30:55.665Z,34.56
2018-08-23T16:33:59.304Z,34.39
2018-08-23T16:37:02.720Z,34.58
2018-08-23T16:40:05.960Z,34.21
2018-08-23T16:43:09.160Z,34.16
2018-08-23T16:46:12.508Z,33.97
2018-08-23T16:49:15.733Z,33.68
2018-08-23T16:52:19.043Z,33.33
2018-08-23T16:55:23.600Z,33.02
2018-08-23T16:58:27.931Z,32.78
2018-08-23T17:01:31.238Z,32.76
2018-08-23T17:04:40.025Z,32.78
2018-08-23T17:07:45.557Z,32.68
2018-08-23T17:10:48.958Z,32.68
2018-08-23T17:13:53.326Z,32.59
2018-08-23T17:17:02.431Z,32.45
2018-08-23T17:20:05.767Z,32.06
2018-08-23T17:23:09.058Z,31.90
2018-08-23T17:26:12.347Z,31.84
2018-08-23T17:29:15.746Z,31.69
2018-08-23T17:32:20.035Z,31.66
2018-08-23T17:35:24.623Z,31.57
2018-08-23T17:38:29.197Z,31.41
2018-08-23T17:41:32.367Z,31.27
2018-08-23T17:44:35.715Z,31.13
2018-08-23T17:47:38.985Z,31.11
2018-08-23T17:50:42.319Z,31.05
2018-08-23T17:53:46.646Z,31.00
2018-08-23T17:56:49.926Z,30.93
2018-08-23T17:59:54.325Z,30.82
2018-08-23T18:02:58.066Z,30.79
2018-08-23T18:06:01.364Z,30.71
2018-08-23T18:09:07.655Z,30.74
2018-08-23T18:12:10.807Z,30.52
2018-08-23T18:15:14.108Z,30.20
2018-08-23T18:18:17.415Z,29.72
2018-08-23T18:21:20.700Z,29.46
2018-08-23T18:24:24.708Z,29.22
2018-08-23T18:27:28.011Z,28.76
2018-08-23T18:30:31.518Z,28.70
2018-08-23T18:33:34.908Z,28.68
2018-08-23T18:36:38.085Z,28.53
2018-08-23T18:39:41.292Z,28.22
2018-08-23T18:42:44.409Z,27.86
2018-08-23T18:45:47.712Z,27.76
2018-08-23T18:48:51.187Z,27.73
2018-08-23T18:51:54.377Z,27.78
2018-08-23T18:54:58.424Z,27.63
2018-08-23T18:58:02.656Z,27.61
2018-08-23T19:01:06.226Z,27.41
2018-08-23T19:04:09.556Z,27.37
2018-08-23T19:07:18.219Z,27.51
2018-08-23T19:10:23.525Z,27.52
2018-08-23T19:13:26.729Z,27.47
2018-08-23T19:16:35.447Z,27.39
2018-08-23T19:19:38.729Z,27.34
2018-08-23T19:22:43.259Z,27.17
2018-08-23T19:25:46.541Z,27.30
2018-08-23T19:28:50.041Z,27.27
2018-08-23T19:31:53.401Z,27.11
2018-08-23T19:34:56.712Z,26.99
2018-08-23T19:38:00.000Z,27.03
2018-08-23T19:41:03.226Z,26.87
2018-08-23T19:44:06.478Z,26.82
2018-08-23T19:47:16.059Z,26.63
2018-08-23T19:50:19.371Z,26.59
2018-08-23T19:53:22.683Z,26.56
2018-08-23T19:56:26.111Z,26.54
2018-08-23T19:59:29.492Z,26.35
2018-08-23T20:02:32.868Z,26.35
2018-08-23T20:05:36.287Z,26.44
2018-08-23T20:08:39.516Z,26.52
2018-08-23T20:11:42.864Z,26.50
2018-08-23T20:14:46.186Z,26.63
2018-08-23T20:17:50.163Z,26.62
2018-08-23T20:20:53.565Z,26.59
2018-08-23T20:23:56.785Z,26.61
2018-08-23T20:27:00.040Z,26.64
2018-08-23T20:30:03.337Z,26.79
2018-08-23T20:33:06.859Z,26.86
2018-08-23T20:36:10.192Z,26.92
2018-08-23T20:39:14.698Z,26.93
2018-08-23T20:42:17.893Z,26.83
2018-08-23T20:45:22.247Z,26.47
2018-08-23T20:48:25.671Z,26.33
2018-08-23T20:51:28.905Z,26.02
2018-08-23T20:54:32.119Z,25.83
2018-08-23T20:57:35.364Z,25.36
2018-08-23T21:00:38.571Z,24.78
2018-08-23T21:03:41.949Z,23.95
2018-08-23T21:06:45.202Z,23.92
2018-08-23T21:09:48.641Z,23.88
2018-08-23T21:12:53.120Z,24.00
2018-08-23T21:15:56.403Z,24.10
2018-08-23T21:18:59.885Z,24.15
2018-08-23T21:22:03.218Z,24.16
2018-08-23T21:25:06.496Z,23.91
2018-08-23T21:28:09.797Z,23.54
2018-08-23T21:31:13.158Z,23.48
2018-08-23T21:34:16.575Z,23.51
2018-08-23T21:37:20.432Z,23.47
2018-08-23T21:40:23.934Z,23.55
2018-08-23T21:43:27.287Z,23.62
2018-08-23T21:46:30.691Z,23.59
2018-08-23T21:49:33.962Z,23.70
2018-08-23T21:52:37.400Z,23.67
2018-08-23T21:55:41.109Z,23.45
2018-08-23T21:58:44.742Z,23.40
2018-08-23T22:01:48.112Z,23.43
2018-08-23T22:04:54.731Z,23.34
2018-08-23T22:07:57.985Z,23.34
2018-08-23T22:11:01.510Z,23.21
2018-08-23T22:14:04.923Z,22.89
2018-08-23T22:17:08.159Z,22.97
2018-08-23T22:20:11.544Z,22.80
2018-08-23T22:23:15.787Z,22.79
2018-08-23T22:26:19.071Z,22.83
2018-08-23T22:29:22.933Z,22.79
2018-08-23T22:32:27.203Z,22.75
2018-08-23T22:35:30.536Z,22.75
2018-08-23T22:38:34.031Z,22.81
2018-08-23T22:41:37.480Z,22.81
2018-08-23T22:44:40.880Z,22.82
2018-08-23T22:47:44.104Z,22.89
2018-08-23T22:50:47.560Z,22.87
2018-08-23T22:53:50.829Z,22.85
2018-08-23T22:56:54.204Z,22.85
2018-08-23T22:59:57.625Z,22.87
2018-08-23T23:03:00.971Z,22.83
2018-08-23T23:06:04.196Z,22.84
2018-08-23T23:09:10.224Z,22.88
2018-08-23T23:12:13.523Z,22.86
2018-08-23T23:15:22.120Z,22.85
2018-08-23T23:18:25.436Z,22.66
2018-08-23T23:21:28.875Z,22.55
2018-08-23T23:25:06.859Z,22.53
2018-08-23T23:28:10.358Z,22.59
2018-08-23T23:31:13.636Z,22.57
2018-08-23T23:34:17.148Z,22.40
2018-08-23T23:37:21.666Z,22.21
2018-08-23T23:40:25.937Z,22.07
2018-08-23T23:43:29.162Z,21.79
2018-08-23T23:46:32.492Z,21.89
2018-08-23T23:49:35.830Z,21.99
2018-08-23T23:52:39.035Z,22.07
2018-08-23T23:55:42.223Z,22.16
2018-08-23T23:58:45.564Z,22.19
